sensor_id;sensor_type;location;lat;lon;timestamp;temperature;humidity
28845;DHT22;15976;47.938;7.758;2023-12-14T00:02:15;9.10;94.50
28845;DHT22;15976;47.938;7.758;2023-12-14T00:04:42;9.10;94.40
28845;DHT22;15976;47.938;7.758;2023-12-14T00:07:09;9.00;94.50
28845;DHT22;15976;47.938;7.758;2023-12-14T00:09:42;9.00;94.40
28845;DHT22;15976;47.938;7.758;2023-12-14T00:12:09;9.00;94.40
28845;DHT22;15976;47.938;7.758;2023-12-14T00:14:36;9.10;94.50
28845;DHT22;15976;47.938;7.758;2023-12-14T00:17:03;9.10;94.40
28845;DHT22;15976;47.938;7.758;2023-12-14T00:19:30;9.10;94.40
28845;DHT22;15976;47.938;7.758;2023-12-14T00:21:57;9.00;94.30
28845;DHT22;15976;47.938;7.758;2023-12-14T00:24:24;9.10;94.30
28845;DHT22;15976;47.938;7.758;2023-12-14T00:26:51;9.10;94.30
28845;DHT22;15976;47.938;7.758;2023-12-14T00:29:18;9.00;94.30
28845;DHT22;15976;47.938;7.758;2023-12-14T00:31:45;9.10;94.20
28845;DHT22;15976;47.938;7.758;2023-12-14T00:34:12;9.10;94.30
28845;DHT22;15976;47.938;7.758;2023-12-14T00:36:39;9.10;94.20
28845;DHT22;15976;47.938;7.758;2023-12-14T00:39:07;9.10;94.20
28845;DHT22;15976;47.938;7.758;2023-12-14T00:41:33;9.10;94.20
28845;DHT22;15976;47.938;7.758;2023-12-14T00:44:01;9.10;94.20
28845;DHT22;15976;47.938;7.758;2023-12-14T00:46:28;9.10;94.10
28845;DHT22;15976;47.938;7.758;2023-12-14T00:48:55;9.10;94.10
28845;DHT22;15976;47.938;7.758;2023-12-14T00:51:22;9.10;94.10
28845;DHT22;15976;47.938;7.758;2023-12-14T00:53:49;9.10;94.10
28845;DHT22;15976;47.938;7.758;2023-12-14T00:56:16;9.10;94.00
28845;DHT22;15976;47.938;7.758;2023-12-14T00:58:46;9.10;94.00
28845;DHT22;15976;47.938;7.758;2023-12-14T01:01:13;9.10;94.00
28845;DHT22;15976;47.938;7.758;2023-12-14T01:03:40;9.10;94.00
28845;DHT22;15976;47.938;7.758;2023-12-14T01:06:07;9.10;94.00
28845;DHT22;15976;47.938;7.758;2023-12-14T01:08:34;9.10;94.00
28845;DHT22;15976;47.938;7.758;2023-12-14T01:11:01;9.10;93.90
28845;DHT22;15976;47.938;7.758;2023-12-14T01:13:28;9.10;94.00
28845;DHT22;15976;47.938;7.758;2023-12-14T01:15:55;9.10;93.90
28845;DHT22;15976;47.938;7.758;2023-12-14T01:18:22;9.10;93.80
28845;DHT22;15976;47.938;7.758;2023-12-14T01:20:51;9.10;93.90
28845;DHT22;15976;47.938;7.758;2023-12-14T01:23:18;9.10;93.90
28845;DHT22;15976;47.938;7.758;2023-12-14T01:25:45;9.10;93.90
28845;DHT22;15976;47.938;7.758;2023-12-14T01:28:12;9.10;93.80
28845;DHT22;15976;47.938;7.758;2023-12-14T01:30:40;9.10;93.80
28845;DHT22;15976;47.938;7.758;2023-12-14T01:33:08;9.10;93.80
28845;DHT22;15976;47.938;7.758;2023-12-14T01:35:35;9.10;93.70
28845;DHT22;15976;47.938;7.758;2023-12-14T01:38:02;9.20;93.80
28845;DHT22;15976;47.938;7.758;2023-12-14T01:40:29;9.20;93.80
28845;DHT22;15976;47.938;7.758;2023-12-14T01:43:09;9.20;93.80
28845;DHT22;15976;47.938;7.758;2023-12-14T01:45:42;9.20;93.80
28845;DHT22;15976;47.938;7.758;2023-12-14T01:48:09;9.20;93.80
28845;DHT22;15976;47.938;7.758;2023-12-14T01:50:36;9.30;93.70
28845;DHT22;15976;47.938;7.758;2023-12-14T01:53:04;9.30;93.60
28845;DHT22;15976;47.938;7.758;2023-12-14T01:55:31;9.30;93.60
28845;DHT22;15976;47.938;7.758;2023-12-14T01:57:58;9.30;93.60
28845;DHT22;15976;47.938;7.758;2023-12-14T02:03:20;9.30;93.40
28845;DHT22;15976;47.938;7.758;2023-12-14T02:05:47;9.20;93.40
28845;DHT22;15976;47.938;7.758;2023-12-14T02:08:14;9.20;93.40
28845;DHT22;15976;47.938;7.758;2023-12-14T02:10:42;9.20;93.40
28845;DHT22;15976;47.938;7.758;2023-12-14T02:13:09;9.30;93.40
28845;DHT22;15976;47.938;7.758;2023-12-14T02:15:36;9.30;93.40
28845;DHT22;15976;47.938;7.758;2023-12-14T02:18:04;9.30;93.30
28845;DHT22;15976;47.938;7.758;2023-12-14T02:20:31;9.30;93.30
28845;DHT22;15976;47.938;7.758;2023-12-14T02:22:58;9.30;93.40
28845;DHT22;15976;47.938;7.758;2023-12-14T02:25:25;9.40;93.50
28845;DHT22;15976;47.938;7.758;2023-12-14T02:27:52;9.40;93.50
28845;DHT22;15976;47.938;7.758;2023-12-14T02:30:19;9.50;93.40
28845;DHT22;15976;47.938;7.758;2023-12-14T02:32:46;9.50;93.20
28845;DHT22;15976;47.938;7.758;2023-12-14T02:35:13;9.40;93.10
28845;DHT22;15976;47.938;7.758;2023-12-14T02:37:40;9.40;93.30
28845;DHT22;15976;47.938;7.758;2023-12-14T02:40:08;9.40;93.40
28845;DHT22;15976;47.938;7.758;2023-12-14T02:42:35;9.40;93.40
28845;DHT22;15976;47.938;7.758;2023-12-14T02:45:03;9.40;93.40
28845;DHT22;15976;47.938;7.758;2023-12-14T02:47:30;9.40;93.30
28845;DHT22;15976;47.938;7.758;2023-12-14T02:49:58;9.30;93.40
28845;DHT22;15976;47.938;7.758;2023-12-14T02:52:25;9.40;93.50
28845;DHT22;15976;47.938;7.758;2023-12-14T02:54:52;9.40;93.50
28845;DHT22;15976;47.938;7.758;2023-12-14T02:57:19;9.30;93.50
28845;DHT22;15976;47.938;7.758;2023-12-14T02:59:46;9.40;93.40
28845;DHT22;15976;47.938;7.758;2023-12-14T03:02:13;9.30;93.40
28845;DHT22;15976;47.938;7.758;2023-12-14T03:04:40;9.40;93.30
28845;DHT22;15976;47.938;7.758;2023-12-14T03:07:07;9.30;93.30
28845;DHT22;15976;47.938;7.758;2023-12-14T03:09:34;9.30;93.40
28845;DHT22;15976;47.938;7.758;2023-12-14T03:12:02;9.30;93.30
28845;DHT22;15976;47.938;7.758;2023-12-14T03:14:32;9.30;93.20
28845;DHT22;15976;47.938;7.758;2023-12-14T03:17:00;9.30;93.20
28845;DHT22;15976;47.938;7.758;2023-12-14T03:19:28;9.30;93.30
28845;DHT22;15976;47.938;7.758;2023-12-14T03:21:55;9.30;93.40
28845;DHT22;15976;47.938;7.758;2023-12-14T03:24:22;9.20;93.40
28845;DHT22;15976;47.938;7.758;2023-12-14T03:26:49;9.30;93.40
28845;DHT22;15976;47.938;7.758;2023-12-14T03:29:16;9.30;93.40
28845;DHT22;15976;47.938;7.758;2023-12-14T03:31:43;9.40;93.40
28845;DHT22;15976;47.938;7.758;2023-12-14T03:34:12;9.40;93.40
28845;DHT22;15976;47.938;7.758;2023-12-14T03:36:39;9.40;93.30
28845;DHT22;15976;47.938;7.758;2023-12-14T03:39:06;9.40;93.20
28845;DHT22;15976;47.938;7.758;2023-12-14T03:41:33;9.40;93.20
28845;DHT22;15976;47.938;7.758;2023-12-14T03:44:00;9.40;93.30
28845;DHT22;15976;47.938;7.758;2023-12-14T03:46:27;9.50;93.20
28845;DHT22;15976;47.938;7.758;2023-12-14T03:48:54;9.50;93.20
28845;DHT22;15976;47.938;7.758;2023-12-14T03:51:21;9.50;93.10
28845;DHT22;15976;47.938;7.758;2023-12-14T03:53:48;9.50;93.10
28845;DHT22;15976;47.938;7.758;2023-12-14T03:56:15;9.50;93.00
28845;DHT22;15976;47.938;7.758;2023-12-14T03:58:42;9.50;93.00
28845;DHT22;15976;47.938;7.758;2023-12-14T04:01:18;9.50;93.00
28845;DHT22;15976;47.938;7.758;2023-12-14T04:03:46;9.50;93.00
28845;DHT22;15976;47.938;7.758;2023-12-14T04:06:14;9.50;93.00
28845;DHT22;15976;47.938;7.758;2023-12-14T04:08:42;9.50;93.00
28845;DHT22;15976;47.938;7.758;2023-12-14T04:11:09;9.50;92.90
28845;DHT22;15976;47.938;7.758;2023-12-14T04:13:38;9.50;93.00
28845;DHT22;15976;47.938;7.758;2023-12-14T04:16:06;9.50;93.00
28845;DHT22;15976;47.938;7.758;2023-12-14T04:18:36;9.60;92.90
28845;DHT22;15976;47.938;7.758;2023-12-14T04:21:04;9.50;92.80
28845;DHT22;15976;47.938;7.758;2023-12-14T04:23:31;9.50;92.80
28845;DHT22;15976;47.938;7.758;2023-12-14T04:25:58;9.50;92.70
28845;DHT22;15976;47.938;7.758;2023-12-14T04:28:25;9.50;92.60
28845;DHT22;15976;47.938;7.758;2023-12-14T04:30:52;9.50;92.50
28845;DHT22;15976;47.938;7.758;2023-12-14T04:33:19;9.40;92.40
28845;DHT22;15976;47.938;7.758;2023-12-14T04:35:47;9.40;92.20
28845;DHT22;15976;47.938;7.758;2023-12-14T04:38:14;9.40;92.20
28845;DHT22;15976;47.938;7.758;2023-12-14T04:40:41;9.40;92.30
28845;DHT22;15976;47.938;7.758;2023-12-14T04:43:09;9.40;92.30
28845;DHT22;15976;47.938;7.758;2023-12-14T04:45:36;9.40;92.30
28845;DHT22;15976;47.938;7.758;2023-12-14T04:48:03;9.40;92.20
28845;DHT22;15976;47.938;7.758;2023-12-14T04:50:30;9.40;92.30
28845;DHT22;15976;47.938;7.758;2023-12-14T04:52:57;9.50;92.20
28845;DHT22;15976;47.938;7.758;2023-12-14T04:55:24;9.50;92.30
28845;DHT22;15976;47.938;7.758;2023-12-14T04:57:51;9.50;92.30
28845;DHT22;15976;47.938;7.758;2023-12-14T05:00:18;9.50;92.30
28845;DHT22;15976;47.938;7.758;2023-12-14T05:02:49;9.50;92.20
28845;DHT22;15976;47.938;7.758;2023-12-14T05:05:16;9.50;92.30
28845;DHT22;15976;47.938;7.758;2023-12-14T05:07:43;9.50;92.30
28845;DHT22;15976;47.938;7.758;2023-12-14T05:10:10;9.50;92.30
28845;DHT22;15976;47.938;7.758;2023-12-14T05:12:37;9.50;92.40
28845;DHT22;15976;47.938;7.758;2023-12-14T05:15:06;9.60;92.40
28845;DHT22;15976;47.938;7.758;2023-12-14T05:17:33;9.60;92.40
28845;DHT22;15976;47.938;7.758;2023-12-14T05:20:05;9.60;92.40
28845;DHT22;15976;47.938;7.758;2023-12-14T05:22:35;9.60;92.40
28845;DHT22;15976;47.938;7.758;2023-12-14T05:25:03;9.50;92.30
28845;DHT22;15976;47.938;7.758;2023-12-14T05:27:31;9.60;92.30
28845;DHT22;15976;47.938;7.758;2023-12-14T05:29:58;9.50;92.30
28845;DHT22;15976;47.938;7.758;2023-12-14T05:32:25;9.60;92.30
28845;DHT22;15976;47.938;7.758;2023-12-14T05:34:53;9.60;92.30
28845;DHT22;15976;47.938;7.758;2023-12-14T05:37:20;9.60;92.30
28845;DHT22;15976;47.938;7.758;2023-12-14T05:39:47;9.50;92.30
28845;DHT22;15976;47.938;7.758;2023-12-14T05:42:16;9.50;92.30
28845;DHT22;15976;47.938;7.758;2023-12-14T05:44:44;9.50;92.30
28845;DHT22;15976;47.938;7.758;2023-12-14T05:47:11;9.50;92.40
28845;DHT22;15976;47.938;7.758;2023-12-14T05:49:43;9.50;92.30
28845;DHT22;15976;47.938;7.758;2023-12-14T05:52:10;9.50;92.30
28845;DHT22;15976;47.938;7.758;2023-12-14T05:54:38;9.50;92.40
28845;DHT22;15976;47.938;7.758;2023-12-14T05:57:07;9.60;92.40
28845;DHT22;15976;47.938;7.758;2023-12-14T05:59:34;9.60;92.30
28845;DHT22;15976;47.938;7.758;2023-12-14T06:02:01;9.50;92.30
28845;DHT22;15976;47.938;7.758;2023-12-14T06:04:28;9.60;92.30
28845;DHT22;15976;47.938;7.758;2023-12-14T06:06:55;9.60;92.20
28845;DHT22;15976;47.938;7.758;2023-12-14T06:09:23;9.60;92.10
28845;DHT22;15976;47.938;7.758;2023-12-14T06:11:51;9.50;92.00
28845;DHT22;15976;47.938;7.758;2023-12-14T06:14:18;9.60;92.10
28845;DHT22;15976;47.938;7.758;2023-12-14T06:16:46;9.60;92.20
28845;DHT22;15976;47.938;7.758;2023-12-14T06:19:13;9.60;92.10
28845;DHT22;15976;47.938;7.758;2023-12-14T06:21:40;9.60;92.00
28845;DHT22;15976;47.938;7.758;2023-12-14T06:24:07;9.60;91.90
28845;DHT22;15976;47.938;7.758;2023-12-14T06:26:34;9.60;92.00
28845;DHT22;15976;47.938;7.758;2023-12-14T06:29:01;9.60;92.00
28845;DHT22;15976;47.938;7.758;2023-12-14T06:31:28;9.60;92.00
28845;DHT22;15976;47.938;7.758;2023-12-14T06:33:55;9.60;92.00
28845;DHT22;15976;47.938;7.758;2023-12-14T06:36:27;9.60;91.90
28845;DHT22;15976;47.938;7.758;2023-12-14T06:38:58;9.60;91.90
28845;DHT22;15976;47.938;7.758;2023-12-14T06:41:26;9.60;91.90
28845;DHT22;15976;47.938;7.758;2023-12-14T06:43:54;9.50;91.70
28845;DHT22;15976;47.938;7.758;2023-12-14T06:46:22;9.40;91.80
28845;DHT22;15976;47.938;7.758;2023-12-14T06:48:49;9.40;91.80
28845;DHT22;15976;47.938;7.758;2023-12-14T06:51:16;9.20;91.80
28845;DHT22;15976;47.938;7.758;2023-12-14T06:53:44;9.20;91.90
28845;DHT22;15976;47.938;7.758;2023-12-14T06:56:13;9.10;92.00
28845;DHT22;15976;47.938;7.758;2023-12-14T06:58:41;9.00;92.20
28845;DHT22;15976;47.938;7.758;2023-12-14T07:01:16;9.00;92.20
28845;DHT22;15976;47.938;7.758;2023-12-14T07:03:44;9.00;92.50
28845;DHT22;15976;47.938;7.758;2023-12-14T07:06:15;9.00;92.30
28845;DHT22;15976;47.938;7.758;2023-12-14T07:08:44;9.00;92.30
28845;DHT22;15976;47.938;7.758;2023-12-14T07:11:11;8.90;92.40
28845;DHT22;15976;47.938;7.758;2023-12-14T07:13:39;8.90;92.30
28845;DHT22;15976;47.938;7.758;2023-12-14T07:16:08;8.90;92.30
28845;DHT22;15976;47.938;7.758;2023-12-14T07:18:36;8.90;92.40
28845;DHT22;15976;47.938;7.758;2023-12-14T07:21:04;8.80;92.30
28845;DHT22;15976;47.938;7.758;2023-12-14T07:23:32;8.80;92.60
28845;DHT22;15976;47.938;7.758;2023-12-14T07:25:59;8.80;92.60
28845;DHT22;15976;47.938;7.758;2023-12-14T07:28:30;8.90;92.60
28845;DHT22;15976;47.938;7.758;2023-12-14T07:30:57;8.90;92.40
28845;DHT22;15976;47.938;7.758;2023-12-14T07:33:24;8.90;92.60
28845;DHT22;15976;47.938;7.758;2023-12-14T07:35:51;8.80;92.40
28845;DHT22;15976;47.938;7.758;2023-12-14T07:38:18;8.80;92.50
28845;DHT22;15976;47.938;7.758;2023-12-14T07:40:45;8.90;92.40
28845;DHT22;15976;47.938;7.758;2023-12-14T07:43:14;8.90;92.50
28845;DHT22;15976;47.938;7.758;2023-12-14T07:45:41;9.00;92.50
28845;DHT22;15976;47.938;7.758;2023-12-14T07:48:08;9.00;92.50
28845;DHT22;15976;47.938;7.758;2023-12-14T07:50:36;9.00;92.50
28845;DHT22;15976;47.938;7.758;2023-12-14T07:53:16;9.10;92.40
28845;DHT22;15976;47.938;7.758;2023-12-14T07:55:43;9.10;92.40
28845;DHT22;15976;47.938;7.758;2023-12-14T07:58:11;9.20;92.40
28845;DHT22;15976;47.938;7.758;2023-12-14T08:00:40;9.10;92.30
28845;DHT22;15976;47.938;7.758;2023-12-14T08:03:07;9.10;92.20
28845;DHT22;15976;47.938;7.758;2023-12-14T08:05:35;9.10;92.10
28845;DHT22;15976;47.938;7.758;2023-12-14T08:08:02;9.00;92.20
28845;DHT22;15976;47.938;7.758;2023-12-14T08:10:31;9.00;92.30
28845;DHT22;15976;47.938;7.758;2023-12-14T08:12:59;9.00;92.50
28845;DHT22;15976;47.938;7.758;2023-12-14T08:15:26;9.00;92.70
28845;DHT22;15976;47.938;7.758;2023-12-14T08:17:54;8.90;92.40
28845;DHT22;15976;47.938;7.758;2023-12-14T08:20:22;8.90;92.70
28845;DHT22;15976;47.938;7.758;2023-12-14T08:22:49;8.90;92.60
28845;DHT22;15976;47.938;7.758;2023-12-14T08:25:21;8.90;92.50
28845;DHT22;15976;47.938;7.758;2023-12-14T08:27:48;8.90;92.60
28845;DHT22;15976;47.938;7.758;2023-12-14T08:30:28;9.00;92.70
28845;DHT22;15976;47.938;7.758;2023-12-14T08:33:10;8.90;92.60
28845;DHT22;15976;47.938;7.758;2023-12-14T08:35:50;9.00;92.30
28845;DHT22;15976;47.938;7.758;2023-12-14T08:38:18;9.00;92.60
28845;DHT22;15976;47.938;7.758;2023-12-14T08:40:59;9.00;93.00
28845;DHT22;15976;47.938;7.758;2023-12-14T08:43:36;9.00;92.60
28845;DHT22;15976;47.938;7.758;2023-12-14T08:46:16;9.10;92.40
28845;DHT22;15976;47.938;7.758;2023-12-14T08:48:57;9.10;92.30
28845;DHT22;15976;47.938;7.758;2023-12-14T08:51:25;9.10;92.30
28845;DHT22;15976;47.938;7.758;2023-12-14T08:54:07;9.10;92.30
28845;DHT22;15976;47.938;7.758;2023-12-14T08:56:35;9.10;92.30
28845;DHT22;15976;47.938;7.758;2023-12-14T08:59:03;9.10;92.30
28845;DHT22;15976;47.938;7.758;2023-12-14T09:01:33;9.10;92.40
28845;DHT22;15976;47.938;7.758;2023-12-14T09:04:01;9.10;92.40
28845;DHT22;15976;47.938;7.758;2023-12-14T09:06:28;9.10;92.30
28845;DHT22;15976;47.938;7.758;2023-12-14T09:08:55;9.10;92.20
28845;DHT22;15976;47.938;7.758;2023-12-14T09:11:22;9.10;92.20
28845;DHT22;15976;47.938;7.758;2023-12-14T09:13:50;9.10;92.40
28845;DHT22;15976;47.938;7.758;2023-12-14T09:16:18;9.00;92.30
28845;DHT22;15976;47.938;7.758;2023-12-14T09:18:46;9.00;92.30
28845;DHT22;15976;47.938;7.758;2023-12-14T09:21:14;9.00;92.30
28845;DHT22;15976;47.938;7.758;2023-12-14T09:23:44;9.10;92.40
28845;DHT22;15976;47.938;7.758;2023-12-14T09:26:11;9.10;92.50
28845;DHT22;15976;47.938;7.758;2023-12-14T09:28:39;9.20;92.40
28845;DHT22;15976;47.938;7.758;2023-12-14T09:31:06;9.20;92.30
28845;DHT22;15976;47.938;7.758;2023-12-14T09:33:39;9.20;92.30
28845;DHT22;15976;47.938;7.758;2023-12-14T09:36:07;9.20;92.30
28845;DHT22;15976;47.938;7.758;2023-12-14T09:38:48;9.20;92.30
28845;DHT22;15976;47.938;7.758;2023-12-14T09:41:29;9.30;92.40
28845;DHT22;15976;47.938;7.758;2023-12-14T09:44:10;9.40;92.40
28845;DHT22;15976;47.938;7.758;2023-12-14T09:46:51;9.40;92.10
28845;DHT22;15976;47.938;7.758;2023-12-14T09:49:32;9.50;92.10
28845;DHT22;15976;47.938;7.758;2023-12-14T09:52:13;9.60;92.00
28845;DHT22;15976;47.938;7.758;2023-12-14T09:54:54;9.60;91.80
28845;DHT22;15976;47.938;7.758;2023-12-14T09:57:35;9.70;91.70
28845;DHT22;15976;47.938;7.758;2023-12-14T10:00:33;9.70;91.60
28845;DHT22;15976;47.938;7.758;2023-12-14T10:03:22;9.70;91.60
28845;DHT22;15976;47.938;7.758;2023-12-14T10:05:50;9.80;91.50
28845;DHT22;15976;47.938;7.758;2023-12-14T10:08:18;9.80;91.40
28845;DHT22;15976;47.938;7.758;2023-12-14T10:10:47;9.80;91.40
28845;DHT22;15976;47.938;7.758;2023-12-14T10:13:16;9.90;91.30
28845;DHT22;15976;47.938;7.758;2023-12-14T10:15:44;10.00;91.20
28845;DHT22;15976;47.938;7.758;2023-12-14T10:18:23;10.10;91.00
28845;DHT22;15976;47.938;7.758;2023-12-14T10:20:52;10.10;90.70
28845;DHT22;15976;47.938;7.758;2023-12-14T10:23:20;10.10;90.70
28845;DHT22;15976;47.938;7.758;2023-12-14T10:25:48;10.10;90.60
28845;DHT22;15976;47.938;7.758;2023-12-14T10:28:15;10.20;90.50
28845;DHT22;15976;47.938;7.758;2023-12-14T10:30:43;10.30;90.40
28845;DHT22;15976;47.938;7.758;2023-12-14T10:33:13;10.30;90.20
28845;DHT22;15976;47.938;7.758;2023-12-14T10:35:44;10.30;90.10
28845;DHT22;15976;47.938;7.758;2023-12-14T10:38:15;10.30;89.80
28845;DHT22;15976;47.938;7.758;2023-12-14T10:40:45;10.40;89.60
28845;DHT22;15976;47.938;7.758;2023-12-14T10:43:13;10.30;89.50
28845;DHT22;15976;47.938;7.758;2023-12-14T10:45:54;10.40;89.60
28845;DHT22;15976;47.938;7.758;2023-12-14T10:48:23;10.30;89.40
28845;DHT22;15976;47.938;7.758;2023-12-14T10:50:51;10.30;89.60
28845;DHT22;15976;47.938;7.758;2023-12-14T10:53:20;10.30;89.90
28845;DHT22;15976;47.938;7.758;2023-12-14T10:55:47;10.30;89.90
28845;DHT22;15976;47.938;7.758;2023-12-14T10:58:19;10.30;90.30
28845;DHT22;15976;47.938;7.758;2023-12-14T11:01:00;10.30;90.00
28845;DHT22;15976;47.938;7.758;2023-12-14T11:03:33;10.30;90.20
28845;DHT22;15976;47.938;7.758;2023-12-14T11:06:01;10.20;90.40
28845;DHT22;15976;47.938;7.758;2023-12-14T11:08:38;10.20;90.50
28845;DHT22;15976;47.938;7.758;2023-12-14T11:11:09;10.20;90.60
28845;DHT22;15976;47.938;7.758;2023-12-14T11:13:40;10.20;90.70
28845;DHT22;15976;47.938;7.758;2023-12-14T11:16:08;10.10;90.70
28845;DHT22;15976;47.938;7.758;2023-12-14T11:18:36;10.20;90.80
28845;DHT22;15976;47.938;7.758;2023-12-14T11:21:03;10.10;90.70
28845;DHT22;15976;47.938;7.758;2023-12-14T11:23:33;10.20;90.80
28845;DHT22;15976;47.938;7.758;2023-12-14T11:26:09;10.20;90.70
28845;DHT22;15976;47.938;7.758;2023-12-14T11:28:39;10.20;90.70
28845;DHT22;15976;47.938;7.758;2023-12-14T11:31:12;10.20;90.80
28845;DHT22;15976;47.938;7.758;2023-12-14T11:33:41;10.30;90.80
28845;DHT22;15976;47.938;7.758;2023-12-14T11:36:14;10.30;90.80
28845;DHT22;15976;47.938;7.758;2023-12-14T11:38:42;10.40;90.60
28845;DHT22;15976;47.938;7.758;2023-12-14T11:41:10;10.40;90.60
28845;DHT22;15976;47.938;7.758;2023-12-14T11:43:43;10.40;90.50
28845;DHT22;15976;47.938;7.758;2023-12-14T11:46:11;10.40;90.40
28845;DHT22;15976;47.938;7.758;2023-12-14T11:48:39;10.40;90.30
28845;DHT22;15976;47.938;7.758;2023-12-14T11:51:06;10.40;90.40
28845;DHT22;15976;47.938;7.758;2023-12-14T11:53:36;10.50;90.40
28845;DHT22;15976;47.938;7.758;2023-12-14T11:56:06;10.50;90.20
28845;DHT22;15976;47.938;7.758;2023-12-14T11:58:34;10.50;90.30
28845;DHT22;15976;47.938;7.758;2023-12-14T12:01:18;10.50;90.30
28845;DHT22;15976;47.938;7.758;2023-12-14T12:03:46;10.50;90.30
28845;DHT22;15976;47.938;7.758;2023-12-14T12:06:21;10.50;90.40
28845;DHT22;15976;47.938;7.758;2023-12-14T12:08:52;10.60;90.30
28845;DHT22;15976;47.938;7.758;2023-12-14T12:11:23;10.60;90.40
28845;DHT22;15976;47.938;7.758;2023-12-14T12:13:56;10.60;90.40
28845;DHT22;15976;47.938;7.758;2023-12-14T12:16:26;10.80;90.60
28845;DHT22;15976;47.938;7.758;2023-12-14T12:18:53;10.80;90.30
28845;DHT22;15976;47.938;7.758;2023-12-14T12:21:21;10.90;90.00
28845;DHT22;15976;47.938;7.758;2023-12-14T12:23:49;10.90;90.00
28845;DHT22;15976;47.938;7.758;2023-12-14T12:26:16;11.00;90.00
28845;DHT22;15976;47.938;7.758;2023-12-14T12:28:44;11.10;89.70
28845;DHT22;15976;47.938;7.758;2023-12-14T12:31:11;11.10;89.80
28845;DHT22;15976;47.938;7.758;2023-12-14T12:33:38;11.20;89.30
28845;DHT22;15976;47.938;7.758;2023-12-14T12:36:06;11.30;89.30
28845;DHT22;15976;47.938;7.758;2023-12-14T12:38:34;11.30;89.10
28845;DHT22;15976;47.938;7.758;2023-12-14T12:41:15;11.40;88.80
28845;DHT22;15976;47.938;7.758;2023-12-14T12:43:47;11.50;88.40
28845;DHT22;15976;47.938;7.758;2023-12-14T12:46:14;11.50;88.00
28845;DHT22;15976;47.938;7.758;2023-12-14T12:48:42;11.50;87.70
28845;DHT22;15976;47.938;7.758;2023-12-14T12:51:09;11.50;87.70
28845;DHT22;15976;47.938;7.758;2023-12-14T12:53:37;11.40;87.50
28845;DHT22;15976;47.938;7.758;2023-12-14T12:56:05;11.40;87.50
28845;DHT22;15976;47.938;7.758;2023-12-14T12:58:34;11.30;87.60
28845;DHT22;15976;47.938;7.758;2023-12-14T13:01:01;11.20;87.50
28845;DHT22;15976;47.938;7.758;2023-12-14T13:03:29;11.30;87.50
28845;DHT22;15976;47.938;7.758;2023-12-14T13:05:57;11.20;87.70
28845;DHT22;15976;47.938;7.758;2023-12-14T13:08:25;11.20;87.50
28845;DHT22;15976;47.938;7.758;2023-12-14T13:10:55;11.20;87.80
28845;DHT22;15976;47.938;7.758;2023-12-14T13:13:23;11.20;87.80
28845;DHT22;15976;47.938;7.758;2023-12-14T13:15:54;11.20;87.90
28845;DHT22;15976;47.938;7.758;2023-12-14T13:18:25;11.30;88.00
28845;DHT22;15976;47.938;7.758;2023-12-14T13:20:56;11.30;88.10
28845;DHT22;15976;47.938;7.758;2023-12-14T13:23:24;11.40;87.80
28845;DHT22;15976;47.938;7.758;2023-12-14T13:25:53;11.50;87.30
28845;DHT22;15976;47.938;7.758;2023-12-14T13:28:21;11.50;87.10
28845;DHT22;15976;47.938;7.758;2023-12-14T13:30:49;11.60;87.20
28845;DHT22;15976;47.938;7.758;2023-12-14T13:33:19;11.70;86.90
28845;DHT22;15976;47.938;7.758;2023-12-14T13:35:48;11.80;86.00
28845;DHT22;15976;47.938;7.758;2023-12-14T13:38:15;11.90;85.70
28845;DHT22;15976;47.938;7.758;2023-12-14T13:40:43;12.00;85.20
28845;DHT22;15976;47.938;7.758;2023-12-14T13:43:12;12.00;84.40
28845;DHT22;15976;47.938;7.758;2023-12-14T13:45:41;12.00;83.80
28845;DHT22;15976;47.938;7.758;2023-12-14T13:48:11;12.00;83.40
28845;DHT22;15976;47.938;7.758;2023-12-14T13:50:39;11.90;83.10
28845;DHT22;15976;47.938;7.758;2023-12-14T13:53:07;11.90;83.10
28845;DHT22;15976;47.938;7.758;2023-12-14T13:55:35;11.80;83.20
28845;DHT22;15976;47.938;7.758;2023-12-14T13:58:02;11.80;83.60
28845;DHT22;15976;47.938;7.758;2023-12-14T14:00:30;11.70;83.60
28845;DHT22;15976;47.938;7.758;2023-12-14T14:02:59;11.70;84.00
28845;DHT22;15976;47.938;7.758;2023-12-14T14:05:27;11.70;83.70
28845;DHT22;15976;47.938;7.758;2023-12-14T14:07:56;11.60;83.50
28845;DHT22;15976;47.938;7.758;2023-12-14T14:10:25;11.50;83.80
28845;DHT22;15976;47.938;7.758;2023-12-14T14:12:53;11.50;83.90
28845;DHT22;15976;47.938;7.758;2023-12-14T14:15:21;11.50;83.90
28845;DHT22;15976;47.938;7.758;2023-12-14T14:17:50;11.50;83.80
28845;DHT22;15976;47.938;7.758;2023-12-14T14:20:20;11.50;83.50
28845;DHT22;15976;47.938;7.758;2023-12-14T14:22:50;11.40;83.30
28845;DHT22;15976;47.938;7.758;2023-12-14T14:25:21;11.40;83.40
28845;DHT22;15976;47.938;7.758;2023-12-14T14:27:48;11.40;83.50
28845;DHT22;15976;47.938;7.758;2023-12-14T14:30:16;11.40;83.70
28845;DHT22;15976;47.938;7.758;2023-12-14T14:32:44;11.40;84.10
28845;DHT22;15976;47.938;7.758;2023-12-14T14:35:13;11.30;84.50
28845;DHT22;15976;47.938;7.758;2023-12-14T14:37:42;11.30;83.80
28845;DHT22;15976;47.938;7.758;2023-12-14T14:40:14;11.30;84.00
28845;DHT22;15976;47.938;7.758;2023-12-14T14:42:42;11.30;84.20
28845;DHT22;15976;47.938;7.758;2023-12-14T14:45:10;11.30;84.20
28845;DHT22;15976;47.938;7.758;2023-12-14T14:47:38;11.30;84.30
28845;DHT22;15976;47.938;7.758;2023-12-14T14:50:07;11.30;84.50
28845;DHT22;15976;47.938;7.758;2023-12-14T14:52:34;11.20;84.40
28845;DHT22;15976;47.938;7.758;2023-12-14T14:55:10;11.20;84.40
28845;DHT22;15976;47.938;7.758;2023-12-14T14:57:39;11.10;84.10
28845;DHT22;15976;47.938;7.758;2023-12-14T15:00:07;11.10;84.60
28845;DHT22;15976;47.938;7.758;2023-12-14T15:02:35;11.10;84.60
28845;DHT22;15976;47.938;7.758;2023-12-14T15:05:04;11.10;84.60
28845;DHT22;15976;47.938;7.758;2023-12-14T15:07:37;11.10;84.50
28845;DHT22;15976;47.938;7.758;2023-12-14T15:10:07;11.00;84.30
28845;DHT22;15976;47.938;7.758;2023-12-14T15:12:35;10.90;84.30
28845;DHT22;15976;47.938;7.758;2023-12-14T15:15:04;10.70;85.80
28845;DHT22;15976;47.938;7.758;2023-12-14T15:17:36;10.60;86.50
28845;DHT22;15976;47.938;7.758;2023-12-14T15:20:06;10.50;87.80
28845;DHT22;15976;47.938;7.758;2023-12-14T15:22:35;10.40;88.60
28845;DHT22;15976;47.938;7.758;2023-12-14T15:25:05;10.40;88.60
28845;DHT22;15976;47.938;7.758;2023-12-14T15:27:35;10.30;88.40
28845;DHT22;15976;47.938;7.758;2023-12-14T15:30:03;10.10;88.50
28845;DHT22;15976;47.938;7.758;2023-12-14T15:32:33;10.00;89.10
28845;DHT22;15976;47.938;7.758;2023-12-14T15:35:01;9.90;89.50
28845;DHT22;15976;47.938;7.758;2023-12-14T15:37:31;9.90;90.00
28845;DHT22;15976;47.938;7.758;2023-12-14T15:39:59;9.90;90.00
28845;DHT22;15976;47.938;7.758;2023-12-14T15:42:27;9.70;90.30
28845;DHT22;15976;47.938;7.758;2023-12-14T15:44:54;9.80;90.40
28845;DHT22;15976;47.938;7.758;2023-12-14T15:47:24;9.80;90.50
28845;DHT22;15976;47.938;7.758;2023-12-14T15:49:52;9.80;90.60
28845;DHT22;15976;47.938;7.758;2023-12-14T15:52:20;9.90;90.60
28845;DHT22;15976;47.938;7.758;2023-12-14T15:54:48;9.90;90.70